createdAt,value
2018-04-08T00:00:14.132Z,8.08
2018-04-08T00:02:42.444Z,10.04
2018-04-08T00:05:10.786Z,10.08
2018-04-08T00:07:39.095Z,12.40
2018-04-08T00:10:07.434Z,11.58
2018-04-08T00:12:35.752Z,11.74
2018-04-08T00:15:04.084Z,13.32
2018-04-08T00:17:32.410Z,15.28
2018-04-08T00:20:00.750Z,15.86
2018-04-08T00:22:29.074Z,15.64
2018-04-08T00:24:57.430Z,15.32
2018-04-08T00:27:25.740Z,13.96
2018-04-08T00:29:54.072Z,11.22
2018-04-08T00:32:22.391Z,13.48
2018-04-08T00:34:50.718Z,9.44
2018-04-08T00:37:19.043Z,15.58
2018-04-08T00:39:47.378Z,12.32
2018-04-08T00:42:15.691Z,9.22
2018-04-08T00:44:44.027Z,10.90
2018-04-08T00:47:12.342Z,9.78
2018-04-08T00:49:40.692Z,9.40
2018-04-08T00:52:09.012Z,10.92
2018-04-08T00:54:37.328Z,11.02
2018-04-08T00:57:05.664Z,10.88
2018-04-08T00:59:33.980Z,7.78
2018-04-08T01:02:02.303Z,5.20
2018-04-08T01:04:30.626Z,11.94
2018-04-08T01:06:58.968Z,6.52
2018-04-08T01:09:27.306Z,7.28
2018-04-08T01:11:55.632Z,7.66
2018-04-08T01:14:23.943Z,7.54
2018-04-08T01:16:52.290Z,7.66
2018-04-08T01:19:20.609Z,7.70
2018-04-08T01:21:48.946Z,7.02
2018-04-08T01:24:17.261Z,7.80
2018-04-08T01:26:45.591Z,8.62
2018-04-08T01:29:13.898Z,8.66
2018-04-08T01:31:42.238Z,7.20
2018-04-08T01:34:10.560Z,7.20
2018-04-08T01:36:38.897Z,8.86
2018-04-08T01:39:07.212Z,8.70
2018-04-08T01:41:35.550Z,13.46
2018-04-08T01:44:04.178Z,13.44
2018-04-08T01:46:32.515Z,12.20
2018-04-08T01:49:00.827Z,10.98
2018-04-08T01:51:29.165Z,13.04
2018-04-08T01:53:57.481Z,8.94
2018-04-08T01:56:25.824Z,13.32
2018-04-08T01:58:54.136Z,13.14
2018-04-08T02:01:22.506Z,9.42
2018-04-08T02:03:50.818Z,9.04
2018-04-08T02:06:19.162Z,11.58
2018-04-08T02:08:47.470Z,7.34
2018-04-08T02:11:15.808Z,7.68
2018-04-08T02:13:44.117Z,6.86
2018-04-08T02:16:11.691Z,8.82
2018-04-08T02:18:40.015Z,6.90
2018-04-08T02:21:08.347Z,7.64
2018-04-08T02:23:36.651Z,8.52
2018-04-08T02:26:05.001Z,9.94
2018-04-08T02:28:33.315Z,12.38
2018-04-08T02:31:01.673Z,6.16
2018-04-08T02:33:29.983Z,7.94
2018-04-08T02:35:58.302Z,5.54
2018-04-08T02:38:26.644Z,7.38
2018-04-08T02:40:54.962Z,6.12
2018-04-08T02:43:23.303Z,6.08
2018-04-08T02:45:51.631Z,10.24
2018-04-08T02:48:19.968Z,8.58
2018-04-08T02:50:48.283Z,9.62
2018-04-08T02:53:16.635Z,12.34
2018-04-08T02:55:44.962Z,10.58
2018-04-08T02:58:13.942Z,10.12
2018-04-08T03:00:42.263Z,7.76
2018-04-08T03:03:10.625Z,11.22
2018-04-08T03:05:38.937Z,8.34
2018-04-08T03:08:07.277Z,7.62
2018-04-08T03:10:35.596Z,10.42
2018-04-08T03:13:03.932Z,9.94
2018-04-08T03:15:32.251Z,7.14
2018-04-08T03:18:00.586Z,11.08
2018-04-08T03:20:28.887Z,7.68
2018-04-08T03:22:57.221Z,9.02
2018-04-08T03:25:25.538Z,8.90
2018-04-08T03:27:53.872Z,5.96
2018-04-08T03:30:22.182Z,7.78
2018-04-08T03:32:50.521Z,6.72
2018-04-08T03:35:18.834Z,9.24
2018-04-08T03:37:47.176Z,9.84
2018-04-08T03:40:15.497Z,9.36
2018-04-08T03:42:43.844Z,5.82
2018-04-08T03:45:12.153Z,7.38
2018-04-08T03:47:40.488Z,5.34
2018-04-08T03:50:08.850Z,7.52
2018-04-08T03:52:37.176Z,7.22
2018-04-08T03:55:05.499Z,9.12
2018-04-08T03:57:33.831Z,6.88
2018-04-08T04:00:02.152Z,6.76
2018-04-08T04:02:30.495Z,11.58
2018-04-08T04:04:58.812Z,8.46
2018-04-08T04:07:27.147Z,6.08
2018-04-08T04:09:55.466Z,9.18
2018-04-08T04:12:23.804Z,7.64
2018-04-08T04:14:52.115Z,11.38
2018-04-08T04:17:20.433Z,7.30
2018-04-08T04:20:00.736Z,6.02
2018-04-08T04:22:40.892Z,7.18
2018-04-08T04:25:25.725Z,8.34
2018-04-08T04:27:54.082Z,10.16
2018-04-08T04:30:22.411Z,9.46
2018-04-08T04:32:50.750Z,7.10
2018-04-08T04:35:19.109Z,5.84
2018-04-08T04:37:47.461Z,8.96
2018-04-08T04:40:15.778Z,4.90
2018-04-08T04:42:44.091Z,8.66
2018-04-08T04:45:12.418Z,6.18
2018-04-08T04:47:40.725Z,7.74
2018-04-08T04:50:09.062Z,8.36
2018-04-08T04:52:37.376Z,7.78
2018-04-08T04:55:05.704Z,8.68
2018-04-08T04:57:34.029Z,4.92
2018-04-08T05:00:02.360Z,5.62
2018-04-08T05:02:30.672Z,7.70
2018-04-08T05:04:59.012Z,8.50
2018-04-08T05:07:27.328Z,7.80
2018-04-08T05:09:55.662Z,9.20
2018-04-08T05:12:23.974Z,7.96
2018-04-08T05:14:52.311Z,7.36
2018-04-08T05:17:20.619Z,5.72
2018-04-08T05:19:48.955Z,11.84
2018-04-08T05:22:17.268Z,6.78
2018-04-08T05:24:45.606Z,9.04
2018-04-08T05:27:13.914Z,9.14
2018-04-08T05:29:42.264Z,12.68
2018-04-08T05:32:10.577Z,11.98
2018-04-08T05:34:38.907Z,10.92
2018-04-08T05:37:07.231Z,11.56
2018-04-08T05:39:35.568Z,9.30
2018-04-08T05:42:03.873Z,15.68
2018-04-08T05:44:32.211Z,10.32
2018-04-08T05:47:00.521Z,10.94
2018-04-08T05:49:28.858Z,7.20
2018-04-08T05:51:57.171Z,10.00
2018-04-08T05:54:25.510Z,8.98
2018-04-08T05:56:53.826Z,12.16
2018-04-08T05:59:22.174Z,9.40
2018-04-08T06:01:50.498Z,6.80
2018-04-08T06:04:18.862Z,5.40
2018-04-08T06:06:47.181Z,10.50
2018-04-08T06:09:15.510Z,9.86
2018-04-08T06:11:43.835Z,7.42
2018-04-08T06:14:12.155Z,7.48
2018-04-08T06:16:40.502Z,7.22
2018-04-08T06:19:08.830Z,6.82
2018-04-08T06:21:37.181Z,7.54
2018-04-08T06:24:05.502Z,7.62
2018-04-08T06:26:33.840Z,6.30
2018-04-08T06:29:02.159Z,10.90
2018-04-08T06:31:30.498Z,6.70
2018-04-08T06:33:58.831Z,6.56
2018-04-08T06:36:27.165Z,9.38
2018-04-08T06:38:55.479Z,5.18
2018-04-08T06:41:23.820Z,8.40
2018-04-08T06:43:52.145Z,5.84
2018-04-08T06:46:20.488Z,8.00
2018-04-08T06:48:48.808Z,7.96
2018-04-08T06:51:17.147Z,12.18
2018-04-08T06:53:45.512Z,7.44
2018-04-08T06:56:13.851Z,5.88
2018-04-08T06:58:42.159Z,5.44
2018-04-08T07:01:10.498Z,8.58
2018-04-08T07:03:38.818Z,7.24
2018-04-08T07:06:07.183Z,5.18
2018-04-08T07:08:35.495Z,9.00
2018-04-08T07:11:03.842Z,5.32
2018-04-08T07:13:32.164Z,23.36
2018-04-08T07:16:00.498Z,5.90
2018-04-08T07:18:28.842Z,6.70
2018-04-08T07:20:57.175Z,8.72
2018-04-08T07:23:25.497Z,8.90
2018-04-08T07:25:53.831Z,8.74
2018-04-08T07:28:22.153Z,5.78
2018-04-08T07:30:50.482Z,5.48
2018-04-08T07:33:18.798Z,7.44
2018-04-08T07:35:47.191Z,5.78
2018-04-08T07:38:15.511Z,7.64
2018-04-08T07:40:43.860Z,7.06
2018-04-08T07:43:12.183Z,5.70
2018-04-08T07:45:40.528Z,9.66
2018-04-08T07:48:08.846Z,14.24
2018-04-08T07:50:37.194Z,21.14
2018-04-08T07:53:05.542Z,16.00
2018-04-08T07:55:33.878Z,9.02
2018-04-08T07:58:02.203Z,10.14
2018-04-08T08:00:30.511Z,5.60
2018-04-08T08:02:58.843Z,8.78
2018-04-08T08:05:27.200Z,6.58
2018-04-08T08:07:55.531Z,5.68
2018-04-08T08:10:23.838Z,8.26
2018-04-08T08:12:52.172Z,6.76
2018-04-08T08:15:20.489Z,7.02
2018-04-08T08:17:48.843Z,8.52
2018-04-08T08:20:17.157Z,6.90
2018-04-08T08:22:45.499Z,5.02
2018-04-08T08:25:13.802Z,5.50
2018-04-08T08:27:42.132Z,8.54
2018-04-08T08:30:10.443Z,7.72
2018-04-08T08:32:38.775Z,8.44
2018-04-08T08:35:07.097Z,6.88
2018-04-08T08:37:35.432Z,5.90
2018-04-08T08:40:03.744Z,7.98
2018-04-08T08:42:32.074Z,7.52
2018-04-08T08:45:00.382Z,6.56
2018-04-08T08:47:28.716Z,7.28
2018-04-08T08:49:56.264Z,8.84
2018-04-08T08:52:24.604Z,9.62
2018-04-08T08:54:52.933Z,7.54
2018-04-08T08:57:20.526Z,11.44
2018-04-08T08:59:48.875Z,10.56
2018-04-08T09:02:17.220Z,15.40
2018-04-08T09:04:45.532Z,12.36
2018-04-08T09:07:13.870Z,10.88
2018-04-08T09:09:42.198Z,17.10
2018-04-08T09:12:10.572Z,15.08
2018-04-08T09:14:39.137Z,23.52
2018-04-08T09:17:07.474Z,17.54
2018-04-08T09:19:51.687Z,16.06
2018-04-08T09:22:38.815Z,15.84
2018-04-08T09:25:07.135Z,12.70
2018-04-08T09:27:35.481Z,16.02
2018-04-08T09:30:03.806Z,12.40
2018-04-08T09:32:32.150Z,10.52
2018-04-08T09:35:00.472Z,11.30
2018-04-08T09:37:28.816Z,9.92
2018-04-08T09:39:57.139Z,13.30
2018-04-08T09:42:25.471Z,9.80
2018-04-08T09:44:53.787Z,10.04
2018-04-08T09:47:22.142Z,10.10
2018-04-08T09:49:50.539Z,11.56
2018-04-08T09:52:18.897Z,15.50
2018-04-08T09:54:47.220Z,8.30
2018-04-08T09:57:15.567Z,7.12
2018-04-08T09:59:43.893Z,14.26
2018-04-08T10:02:31.119Z,8.72
2018-04-08T10:04:59.446Z,6.88
2018-04-08T10:07:27.783Z,7.54
2018-04-08T10:09:56.103Z,12.42
2018-04-08T10:12:24.416Z,10.12
2018-04-08T10:14:52.755Z,8.62
2018-04-08T10:17:21.069Z,8.76
2018-04-08T10:19:49.412Z,7.42
2018-04-08T10:22:17.727Z,6.12
2018-04-08T10:24:46.062Z,7.12
2018-04-08T10:27:14.369Z,6.74
2018-04-08T10:29:42.724Z,8.26
2018-04-08T10:32:11.063Z,6.88
2018-04-08T10:34:39.397Z,6.54
2018-04-08T10:37:07.707Z,7.08
2018-04-08T10:39:36.040Z,6.72
2018-04-08T10:42:04.352Z,6.68
2018-04-08T10:44:32.704Z,6.54
2018-04-08T10:47:01.017Z,10.12
2018-04-08T10:49:29.360Z,6.24
2018-04-08T10:51:57.671Z,8.86
2018-04-08T10:54:26.005Z,7.38
2018-04-08T10:56:54.323Z,6.30
2018-04-08T10:59:22.664Z,8.24
2018-04-08T11:01:50.985Z,5.54
2018-04-08T11:04:19.326Z,9.88
2018-04-08T11:06:47.642Z,12.32
2018-04-08T11:09:15.981Z,8.32
2018-04-08T11:11:44.308Z,9.34
2018-04-08T11:14:12.641Z,8.24
2018-04-08T11:16:40.954Z,8.08
2018-04-08T11:19:09.287Z,11.96
2018-04-08T11:21:37.611Z,4.62
2018-04-08T11:24:05.939Z,6.44
2018-04-08T11:26:34.251Z,11.92
2018-04-08T11:29:02.589Z,6.08
2018-04-08T11:31:30.910Z,8.70
2018-04-08T11:33:59.231Z,7.48
2018-04-08T11:36:27.566Z,8.48
2018-04-08T11:38:55.883Z,6.80
2018-04-08T11:41:24.218Z,5.12
2018-04-08T11:43:52.552Z,6.96
2018-04-08T11:46:20.891Z,7.78
2018-04-08T11:48:49.207Z,6.18
2018-04-08T11:51:17.545Z,9.40
2018-04-08T11:53:45.860Z,6.38
2018-04-08T11:56:14.199Z,5.94
2018-04-08T11:58:42.508Z,5.44
2018-04-08T12:01:12.952Z,5.70
2018-04-08T12:03:41.258Z,6.68
2018-04-08T12:06:10.465Z,6.92
2018-04-08T12:08:39.630Z,6.86
2018-04-08T12:11:07.974Z,5.80
2018-04-08T12:16:04.171Z,9.20
2018-04-08T12:21:00.387Z,6.42
2018-04-08T12:23:28.703Z,9.78
2018-04-08T12:25:57.099Z,8.94
2018-04-08T12:28:25.411Z,8.16
2018-04-08T12:30:53.758Z,7.04
2018-04-08T12:33:22.086Z,5.16
2018-04-08T12:35:50.423Z,6.16
2018-04-08T12:38:18.758Z,5.72
2018-04-08T12:40:47.101Z,9.26
2018-04-08T12:43:15.413Z,6.48
2018-04-08T12:45:43.738Z,5.74
2018-04-08T12:48:12.060Z,6.36
2018-04-08T12:50:40.411Z,6.06
2018-04-08T12:53:08.718Z,5.44
2018-04-08T12:55:37.048Z,6.58
2018-04-08T12:58:05.365Z,10.96
2018-04-08T13:00:33.742Z,13.40
2018-04-08T13:03:02.049Z,11.16
2018-04-08T13:05:30.379Z,9.62
2018-04-08T13:07:58.691Z,8.84
2018-04-08T13:10:27.164Z,5.66
2018-04-08T13:12:55.688Z,7.18
2018-04-08T13:15:24.056Z,6.98
2018-04-08T13:17:52.401Z,9.10
2018-04-08T13:20:20.721Z,6.02
2018-04-08T13:22:49.051Z,11.06
2018-04-08T13:25:17.368Z,10.06
2018-04-08T13:27:45.695Z,7.06
2018-04-08T13:30:14.013Z,10.52
2018-04-08T13:32:42.348Z,8.72
2018-04-08T13:35:10.657Z,6.90
2018-04-08T13:37:38.990Z,11.74
2018-04-08T13:40:07.299Z,7.44
2018-04-08T13:42:35.628Z,7.90
2018-04-08T13:45:03.936Z,11.88
2018-04-08T13:47:32.277Z,7.40
2018-04-08T13:50:00.592Z,10.36
2018-04-08T13:52:28.923Z,9.06
2018-04-08T13:54:57.240Z,6.64
2018-04-08T13:57:25.573Z,6.90
2018-04-08T13:59:53.879Z,6.20
2018-04-08T14:02:22.208Z,6.68
2018-04-08T14:04:50.526Z,10.72
2018-04-08T14:07:18.860Z,8.66
2018-04-08T14:09:47.177Z,10.04
2018-04-08T14:12:15.515Z,8.80
2018-04-08T14:14:43.843Z,7.26
2018-04-08T14:17:12.172Z,7.44
2018-04-08T14:19:40.480Z,5.14
2018-04-08T14:22:08.810Z,9.14
2018-04-08T14:24:37.171Z,6.24
2018-04-08T14:27:05.478Z,8.00
2018-04-08T14:29:33.782Z,8.16
2018-04-08T14:32:02.120Z,10.14
2018-04-08T14:34:30.439Z,11.42
2018-04-08T14:36:58.772Z,9.82
2018-04-08T14:39:27.079Z,6.68
2018-04-08T14:41:55.411Z,5.90
2018-04-08T14:44:23.720Z,8.42
2018-04-08T14:46:52.091Z,8.32
2018-04-08T14:49:20.402Z,5.74
2018-04-08T14:51:48.728Z,8.60
2018-04-08T14:54:17.038Z,5.52
2018-04-08T14:56:45.389Z,11.60
2018-04-08T14:59:13.718Z,7.38
2018-04-08T15:01:46.663Z,9.50
2018-04-08T15:04:10.389Z,10.26
2018-04-08T15:06:38.694Z,7.40
2018-04-08T15:09:07.043Z,8.92
2018-04-08T15:11:35.361Z,8.54
2018-04-08T15:14:03.704Z,11.22
2018-04-08T15:16:32.020Z,6.26
2018-04-08T15:19:00.354Z,12.52
2018-04-08T15:21:28.664Z,10.92
2018-04-08T15:23:56.999Z,9.60
2018-04-08T15:26:25.310Z,6.92
2018-04-08T15:28:53.636Z,7.40
2018-04-08T15:31:21.954Z,10.70
2018-04-08T15:33:50.288Z,6.14
2018-04-08T15:36:18.828Z,6.94
2018-04-08T15:38:47.172Z,8.44
2018-04-08T15:41:15.497Z,4.84
2018-04-08T15:46:11.683Z,5.10
2018-04-08T15:48:40.021Z,9.00
2018-04-08T15:51:08.334Z,6.28
2018-04-08T15:53:36.674Z,7.30
2018-04-08T15:56:04.983Z,6.90
2018-04-08T15:58:33.316Z,6.40
2018-04-08T16:01:01.640Z,9.10
2018-04-08T16:03:29.989Z,6.28
2018-04-08T16:05:58.296Z,7.55
2018-04-08T16:10:54.471Z,9.08
2018-04-08T16:13:22.794Z,6.88
2018-04-08T16:15:51.153Z,7.06
2018-04-08T16:18:19.486Z,6.94
2018-04-08T16:20:47.811Z,7.08
2018-04-08T16:23:16.142Z,6.00
2018-04-08T16:25:44.455Z,10.98
2018-04-08T16:28:12.789Z,7.20
2018-04-08T16:30:41.103Z,6.08
2018-04-08T16:33:09.431Z,8.88
2018-04-08T16:35:37.744Z,7.24
2018-04-08T16:38:06.054Z,7.86
2018-04-08T16:40:34.392Z,7.82
2018-04-08T16:43:02.702Z,6.30
2018-04-08T16:45:31.039Z,9.18
2018-04-08T16:47:59.348Z,6.28
2018-04-08T16:50:27.682Z,7.62
2018-04-08T16:52:56.003Z,6.94
2018-04-08T16:55:24.338Z,7.40
2018-04-08T16:57:52.670Z,7.82
2018-04-08T17:00:21.012Z,10.12
2018-04-08T17:02:49.327Z,6.50
2018-04-08T17:05:17.656Z,7.08
2018-04-08T17:07:45.966Z,8.72
2018-04-08T17:10:14.303Z,6.78
2018-04-08T17:12:42.612Z,6.72
2018-04-08T17:15:10.952Z,6.62
2018-04-08T17:17:39.254Z,9.50
2018-04-08T17:20:07.593Z,7.38
2018-04-08T17:22:35.911Z,5.76
2018-04-08T17:25:04.234Z,7.84
2018-04-08T17:27:32.567Z,5.00
2018-04-08T17:30:00.904Z,8.00
2018-04-08T17:32:29.218Z,9.56
2018-04-08T17:34:57.555Z,11.88
2018-04-08T17:37:25.868Z,7.76
2018-04-08T17:39:54.201Z,8.86
2018-04-08T17:42:22.543Z,8.30
2018-04-08T17:44:50.879Z,10.58
2018-04-08T17:47:19.202Z,11.30
2018-04-08T17:49:47.531Z,12.84
2018-04-08T17:52:15.855Z,11.78
2018-04-08T17:54:44.203Z,27.58
2018-04-08T17:57:12.513Z,23.22
2018-04-08T17:59:40.851Z,13.12
2018-04-08T18:02:09.164Z,16.70
2018-04-08T18:04:37.498Z,12.04
2018-04-08T18:07:05.816Z,9.72
2018-04-08T18:09:34.171Z,7.22
2018-04-08T18:12:02.483Z,8.66
2018-04-08T18:14:30.836Z,6.84
2018-04-08T18:16:59.175Z,6.42
2018-04-08T18:19:27.579Z,7.00
2018-04-08T18:21:55.914Z,8.74
2018-04-08T18:24:24.269Z,8.22
2018-04-08T18:26:52.627Z,4.88
2018-04-08T18:29:20.949Z,9.78
2018-04-08T18:31:49.306Z,8.32
2018-04-08T18:34:17.665Z,11.60
2018-04-08T18:36:46.003Z,8.05
2018-04-08T18:39:14.311Z,8.76
2018-04-08T18:41:42.707Z,8.78
2018-04-08T18:44:11.028Z,11.44
2018-04-08T18:46:39.359Z,6.10
2018-04-08T18:49:07.680Z,7.56
2018-04-08T18:51:36.014Z,10.24
2018-04-08T18:54:04.343Z,8.26
2018-04-08T18:56:32.676Z,7.44
2018-04-08T18:59:00.991Z,5.58
2018-04-08T19:01:29.344Z,6.88
2018-04-08T19:03:57.651Z,6.92
2018-04-08T19:06:25.991Z,7.26
2018-04-08T19:08:54.307Z,6.52
2018-04-08T19:11:22.695Z,7.24
2018-04-08T19:13:51.007Z,7.60
2018-04-08T19:16:19.368Z,8.42
2018-04-08T19:18:47.775Z,11.70
2018-04-08T19:21:16.210Z,8.02
2018-04-08T19:23:48.351Z,8.78
2018-04-08T19:26:16.720Z,10.80
2018-04-08T19:28:45.087Z,8.76
2018-04-08T19:31:13.423Z,8.64
2018-04-08T19:33:41.747Z,9.34
2018-04-08T19:36:10.088Z,7.68
2018-04-08T19:38:38.402Z,7.10
2018-04-08T19:41:06.734Z,7.52
2018-04-08T19:43:35.057Z,7.16
2018-04-08T19:46:03.390Z,9.76
2018-04-08T19:50:59.640Z,8.46
2018-04-08T19:53:27.959Z,9.06
2018-04-08T19:55:56.299Z,6.80
2018-04-08T19:58:24.607Z,5.64
2018-04-08T20:00:52.976Z,7.56
2018-04-08T20:03:21.349Z,6.16
2018-04-08T20:05:49.663Z,9.32
2018-04-08T20:08:18.001Z,7.02
2018-04-08T20:10:46.315Z,15.68
2018-04-08T20:13:13.895Z,15.60
2018-04-08T20:15:42.261Z,12.36
2018-04-08T20:18:10.650Z,8.58
2018-04-08T20:20:38.931Z,9.70
2018-04-08T20:23:07.303Z,7.18
2018-04-08T20:25:35.619Z,9.36
2018-04-08T20:28:03.946Z,5.12
2018-04-08T20:30:32.266Z,7.34
2018-04-08T20:33:00.609Z,6.54
2018-04-08T20:35:28.924Z,6.78
2018-04-08T20:37:57.266Z,4.74
2018-04-08T20:42:53.463Z,7.35
2018-04-08T20:45:21.775Z,6.50
2018-04-08T20:47:50.838Z,7.60
2018-04-08T20:50:19.160Z,10.07
2018-04-08T20:52:47.496Z,5.22
2018-04-08T20:55:15.807Z,7.42
2018-04-08T20:57:44.135Z,7.34
2018-04-08T21:00:12.443Z,9.74
2018-04-08T21:02:40.769Z,6.97
2018-04-08T21:05:09.089Z,6.80
2018-04-08T21:07:37.415Z,7.74
2018-04-08T21:10:05.723Z,8.97
2018-04-08T21:12:34.074Z,11.94
2018-04-08T21:15:02.413Z,25.82
2018-04-08T21:17:30.758Z,13.32
2018-04-08T21:19:59.081Z,25.04
2018-04-08T21:22:27.416Z,30.66
2018-04-08T21:24:55.746Z,25.74
2018-04-08T21:27:24.087Z,20.38
2018-04-08T21:29:52.412Z,14.46
2018-04-08T21:32:20.760Z,57.90
2018-04-08T21:34:49.091Z,17.70
2018-04-08T21:37:17.432Z,42.02
2018-04-08T21:39:45.753Z,12.32
2018-04-08T21:42:14.088Z,17.54
2018-04-08T21:44:42.408Z,15.72
2018-04-08T21:47:10.752Z,22.18
2018-04-08T21:49:39.087Z,34.46
2018-04-08T21:52:07.414Z,34.46
2018-04-08T21:54:35.761Z,15.18
2018-04-08T21:57:04.088Z,41.52
2018-04-08T21:59:32.436Z,25.82
2018-04-08T22:02:00.765Z,10.90
2018-04-08T22:04:29.103Z,16.22
2018-04-08T22:06:57.420Z,13.88
2018-04-08T22:09:25.758Z,41.34
2018-04-08T22:11:54.080Z,29.76
2018-04-08T22:14:22.422Z,20.72
2018-04-08T22:16:50.747Z,21.46
2018-04-08T22:19:19.092Z,10.32
2018-04-08T22:21:47.419Z,18.94
2018-04-08T22:24:15.752Z,15.80
2018-04-08T22:26:44.076Z,12.64
2018-04-08T22:29:12.411Z,7.10
2018-04-08T22:31:40.728Z,6.26
2018-04-08T22:34:08.308Z,8.20
2018-04-08T22:36:36.620Z,5.80
2018-04-08T22:39:05.711Z,5.48
2018-04-08T22:41:34.031Z,6.76
2018-04-08T22:44:02.371Z,8.08
2018-04-08T22:46:30.688Z,5.74
2018-04-08T22:48:59.023Z,6.14
2018-04-08T22:51:27.336Z,9.64
2018-04-08T22:53:55.676Z,11.54
2018-04-08T22:56:23.993Z,8.08
2018-04-08T22:58:52.334Z,7.32
2018-04-08T23:01:20.654Z,7.38
2018-04-08T23:03:49.015Z,6.10
2018-04-08T23:06:17.329Z,9.46
2018-04-08T23:08:45.681Z,7.82
2018-04-08T23:11:14.028Z,7.90
2018-04-08T23:13:42.362Z,7.80
2018-04-08T23:16:10.671Z,5.92
2018-04-08T23:18:39.011Z,8.94
2018-04-08T23:21:07.340Z,6.90
2018-04-08T23:23:35.681Z,7.94
2018-04-08T23:26:03.993Z,8.28
2018-04-08T23:28:32.340Z,6.18
2018-04-08T23:31:00.659Z,8.22
2018-04-08T23:33:28.968Z,6.40
2018-04-08T23:35:57.306Z,5.50
2018-04-08T23:38:25.623Z,9.24
2018-04-08T23:40:53.960Z,10.28
2018-04-08T23:43:22.274Z,30.00
2018-04-08T23:45:50.621Z,34.24
2018-04-08T23:48:18.970Z,23.34
2018-04-08T23:50:47.303Z,28.12
2018-04-08T23:53:15.636Z,34.54
2018-04-08T23:55:43.985Z,42.78
2018-04-08T23:58:12.296Z,76.06
